Terminal Aerodrome Forecast
Issued by NWS Amarillo, TX

Home | Current Version | Previous Version | Text Only | Print | Product List | Glossary On
Versions: 1 2 3 4 5 6 7 8 9 10 11 12 13 14
000
FTUS44 KAMA 201720
TAFGUY
TAF
KGUY 201720Z 2018/2118 21019G26KT P6SM SKC
     FM210100 19010KT P6SM SKC
     FM211500 22019G27KT P6SM SKC=

USA.gov is the U.S. government's official web portal to all federal, state and local government web resources and services.